createdAt,value
2022-10-05T00:02:41.612Z,5.03
2022-10-05T00:12:49.608Z,4.89
2022-10-05T00:22:59.071Z,4.70
2022-10-05T00:33:04.832Z,4.53
2022-10-05T00:43:31.747Z,4.36
2022-10-05T00:53:44.300Z,4.39
2022-10-05T01:04:02.093Z,4.33
2022-10-05T01:14:16.992Z,4.30
2022-10-05T01:24:42.929Z,4.33
2022-10-05T01:34:57.671Z,4.41
2022-10-05T01:45:12.972Z,4.40
2022-10-05T01:55:26.349Z,4.44
2022-10-05T02:05:40.113Z,4.46
2022-10-05T02:15:52.591Z,4.43
2022-10-05T02:25:59.431Z,4.38
2022-10-05T02:36:14.976Z,4.30
2022-10-05T02:46:34.183Z,4.20
2022-10-05T02:56:48.928Z,4.27
2022-10-05T03:07:05.900Z,4.26
2022-10-05T03:17:17.227Z,4.19
2022-10-05T03:27:34.833Z,4.25
2022-10-05T03:37:42.411Z,4.41
2022-10-05T03:47:52.660Z,4.60
2022-10-05T03:58:04.158Z,4.84
2022-10-05T04:08:19.469Z,4.89
2022-10-05T04:18:31.241Z,4.99
2022-10-05T04:28:55.936Z,5.09
2022-10-05T04:39:17.241Z,5.18
2022-10-05T04:49:41.624Z,5.22
2022-10-05T05:00:02.970Z,5.31
2022-10-05T05:10:33.929Z,5.67
2022-10-05T05:20:55.207Z,6.13
2022-10-05T05:31:11.356Z,6.40
2022-10-05T05:41:24.982Z,6.84
2022-10-05T05:51:36.404Z,7.41
2022-10-05T06:01:48.567Z,8.07
2022-10-05T06:11:58.352Z,9.38
2022-10-05T06:22:08.939Z,10.37
2022-10-05T06:32:26.800Z,10.63
2022-10-05T06:43:02.768Z,10.59
2022-10-05T06:53:22.147Z,10.83
2022-10-05T07:03:41.697Z,11.61
2022-10-05T07:14:04.991Z,12.20
2022-10-05T07:24:23.159Z,13.03
2022-10-05T07:34:40.995Z,13.33
2022-10-05T07:44:54.091Z,13.29
2022-10-05T07:55:07.557Z,13.47
2022-10-05T08:05:18.881Z,14.96
2022-10-05T08:15:28.941Z,19.67
2022-10-05T08:25:46.099Z,24.96
2022-10-05T08:36:00.531Z,23.95
2022-10-05T08:46:37.314Z,22.13
2022-10-05T08:56:52.011Z,19.44
2022-10-05T09:07:09.775Z,18.08
2022-10-05T09:17:39.288Z,17.72
2022-10-05T09:27:53.767Z,17.76
2022-10-05T09:38:28.292Z,17.14
2022-10-05T09:49:04.170Z,17.60
2022-10-05T09:59:37.989Z,17.59
2022-10-05T10:09:58.771Z,17.27
2022-10-05T10:20:22.610Z,17.00
2022-10-05T10:30:55.424Z,16.86
2022-10-05T10:41:33.362Z,17.36
2022-10-05T10:52:12.769Z,17.70
2022-10-05T11:02:30.951Z,17.99
2022-10-05T11:13:03.497Z,18.43
2022-10-05T11:23:29.252Z,18.46
2022-10-05T11:34:10.568Z,18.18
2022-10-05T11:44:55.137Z,18.19
2022-10-05T11:55:13.501Z,18.15
2022-10-05T12:05:24.325Z,18.07
2022-10-05T12:15:36.045Z,18.33
2022-10-05T12:25:46.900Z,18.46
2022-10-05T12:35:58.622Z,18.51
2022-10-05T12:46:17.793Z,18.31
2022-10-05T12:56:37.352Z,18.30
2022-10-05T13:06:52.133Z,18.19
2022-10-05T13:17:06.909Z,18.17
2022-10-05T13:27:19.399Z,18.13
2022-10-05T13:37:32.852Z,17.94
2022-10-05T13:47:47.401Z,17.84
2022-10-05T13:58:05.822Z,17.57
2022-10-05T14:08:18.721Z,17.52
2022-10-05T14:18:29.782Z,17.47
2022-10-05T14:28:39.308Z,17.48
2022-10-05T14:38:57.851Z,17.48
2022-10-05T14:49:22.745Z,17.43
2022-10-05T14:59:40.662Z,17.27
2022-10-05T15:10:00.821Z,16.94
2022-10-05T15:20:17.526Z,16.62
2022-10-05T15:30:23.262Z,16.26
2022-10-05T15:40:35.894Z,15.89
2022-10-05T15:50:55.495Z,15.52
2022-10-05T16:01:08.512Z,15.07
2022-10-05T16:11:22.873Z,14.67
2022-10-05T16:21:41.384Z,14.26
2022-10-05T16:31:58.799Z,13.87
2022-10-05T16:42:16.808Z,13.52
2022-10-05T16:52:25.157Z,13.16
2022-10-05T17:02:45.980Z,12.83
2022-10-05T17:13:03.667Z,12.52
2022-10-05T17:23:29.524Z,12.26
2022-10-05T17:33:56.503Z,12.03
2022-10-05T17:44:27.953Z,11.82
2022-10-05T17:55:12.573Z,11.62
2022-10-05T18:05:29.330Z,11.48
2022-10-05T18:15:48.662Z,11.43
2022-10-05T18:26:01.409Z,11.35
2022-10-05T18:36:21.715Z,11.20
2022-10-05T18:46:39.123Z,11.00
2022-10-05T18:56:50.882Z,10.84
2022-10-05T19:07:08.489Z,10.68
2022-10-05T19:17:26.315Z,10.57
2022-10-05T19:27:43.272Z,10.47
2022-10-05T19:38:03.290Z,10.45
2022-10-05T19:48:23.575Z,10.45
2022-10-05T19:58:31.620Z,10.38
2022-10-05T20:08:43.877Z,10.31
2022-10-05T20:19:09.775Z,10.24
2022-10-05T20:29:15.396Z,10.16
2022-10-05T20:39:22.983Z,10.08
2022-10-05T20:49:31.375Z,9.96
2022-10-05T20:59:38.598Z,9.82
2022-10-05T21:09:47.026Z,9.61
2022-10-05T21:19:53.632Z,9.43
2022-10-05T21:30:01.447Z,9.26
2022-10-05T21:40:08.945Z,9.05
2022-10-05T21:50:15.643Z,8.85
2022-10-05T22:00:22.343Z,8.69
2022-10-05T22:10:29.300Z,8.63
2022-10-05T22:20:36.926Z,8.56
2022-10-05T22:30:43.963Z,8.50
2022-10-05T22:40:49.963Z,8.48
2022-10-05T22:50:55.950Z,8.40
2022-10-05T23:01:05.260Z,8.37
2022-10-05T23:11:14.233Z,8.30
2022-10-05T23:21:21.490Z,8.22
2022-10-05T23:31:30.335Z,8.10
2022-10-05T23:41:35.930Z,8.01
2022-10-05T23:51:42.472Z,7.88
